Uxbridge, Canada
Current Conditions -  °F | °C
As of 8:00 PM on Tuesday 25 Nov 2014 (Local Time) from CYKZ Reporting Station
Broken Clouds Broken Clouds  
Wind Chill: 27°   Ceiling: 2300
Heat Index: 34°   Visibility: 15mi
Dew Point: 25°   Wind: 8mph
Humidity: 70%   Direction: 250°WSW
Pressure: 30.09"   Gusts: NA
Location:  44.1°N, 79.12°W
Report Text: CYKZ 260100Z 25007KT 15SM BKN023 01/M04 A3009 RMK SC6 SLP198
Loading
Personal Weather Stations






























Interactive Weather Map New forecast layout! Learn more

10-Day Weather Forecast

Advertisements
Track Severe Weather on mobile